Time;durP1;ratioP1;P1;durP2;ratioP2;P2;SDS_P1;SDS_P2;PMS_P1;PMS_P2;Temp;Humidity;BMP_temperature;BMP_pressure;BME280_temperature;BME280_humidity;BME280_pressure;Samples;Min_cycle;Max_cycle;Signal;HPM_P1;HPM_P2
2022/08/27 00:00:13;;;;;;;13.35;5.78;;;;;;;23.15;60.35;99678.72;5987901;23;100670;-76
2022/08/27 00:02:40;;;;;;;12.20;6.07;;;;;;;23.21;60.39;99689.72;6036310;23;96666;-77
2022/08/27 00:05:06;;;;;;;12.88;5.53;;;;;;;23.16;60.42;99681.28;6008941;23;97317;-76
2022/08/27 00:07:31;;;;;;;11.73;5.63;;;;;;;23.26;59.94;99679.38;6007682;23;97576;-76
2022/08/27 00:09:57;;;;;;;10.43;4.82;;;;;;;23.25;60.30;99682.22;5987031;23;98559;-76
2022/08/27 00:12:22;;;;;;;17.35;5.35;;;;;;;23.19;60.76;99670.28;6032849;23;97055;-76
2022/08/27 00:14:48;;;;;;;12.77;5.18;;;;;;;23.17;60.74;99682.94;6009179;23;97162;-77
2022/08/27 00:17:13;;;;;;;16.23;5.15;;;;;;;23.00;61.44;99676.53;6030495;23;97345;-76
2022/08/27 00:19:39;;;;;;;13.55;4.68;;;;;;;23.03;61.41;99686.13;6009764;23;106755;-77
2022/08/27 00:22:06;;;;;;;14.27;5.32;;;;;;;23.18;60.99;99683.78;6006876;23;97235;-76
2022/08/27 00:24:32;;;;;;;15.68;5.45;;;;;;;23.24;61.02;99683.19;6009758;23;97043;-76
2022/08/27 00:26:57;;;;;;;11.27;5.25;;;;;;;23.09;61.54;99692.72;6011443;23;98428;-77
2022/08/27 00:29:25;;;;;;;11.55;5.93;;;;;;;22.85;62.11;99677.16;6009332;23;100910;-76
2022/08/27 00:31:51;;;;;;;10.45;5.65;;;;;;;22.86;61.79;99682.34;6011591;23;96716;-77
2022/08/27 00:34:17;;;;;;;14.23;5.82;;;;;;;22.77;62.01;99678.72;6032482;23;97185;-78
2022/08/27 00:36:44;;;;;;;12.48;5.47;;;;;;;22.80;61.87;99680.25;6039787;23;101124;-76
2022/08/27 00:39:10;;;;;;;9.45;5.95;;;;;;;22.88;61.33;99684.88;6039541;23;100798;-76
2022/08/27 00:41:37;;;;;;;12.73;5.72;;;;;;;22.68;61.68;99670.72;6040078;23;97161;-77
2022/08/27 00:44:04;;;;;;;15.65;5.30;;;;;;;22.82;61.51;99681.78;6039350;23;97020;-76
2022/08/27 00:46:44;;;;;;;13.38;5.80;;;;;;;22.69;61.78;99681.28;6063607;23;97513;-77
2022/08/27 00:49:31;;;;;;;11.43;5.03;;;;;;;22.63;61.94;99683.69;6040307;23;97326;-76
2022/08/27 00:52:19;;;;;;;15.30;5.47;;;;;;;22.52;62.26;99676.69;6040156;23;97012;-75
2022/08/27 00:54:45;;;;;;;10.73;5.85;;;;;;;22.67;61.93;99679.75;6040203;23;96614;-77
2022/08/27 00:57:12;;;;;;;9.32;5.88;;;;;;;22.75;61.20;99672.69;6039364;23;98119;-77
2022/08/27 00:59:39;;;;;;;9.15;4.80;;;;;;;22.69;61.86;99686.66;6063874;23;98009;-78
2022/08/27 01:02:19;;;;;;;14.38;5.85;;;;;;;22.69;62.01;99680.44;6064295;23;97083;-77
2022/08/27 01:05:16;;;;;;;17.98;4.90;;;;;;;22.49;62.84;99677.00;6040053;23;96825;-77
2022/08/27 01:07:45;;;;;;;12.10;5.38;;;;;;;22.59;62.54;99685.81;6056664;23;100931;-77
2022/08/27 01:10:13;;;;;;;12.05;5.15;;;;;;;22.59;62.42;99680.47;6090563;23;97885;-77
2022/08/27 01:12:39;;;;;;;12.38;5.55;;;;;;;22.45;62.92;99670.22;6039213;23;96632;-76
2022/08/27 01:15:08;;;;;;;10.48;5.18;;;;;;;22.40;63.28;99683.16;6040384;23;96856;-76
2022/08/27 01:17:36;;;;;;;11.25;5.18;;;;;;;22.39;63.19;99676.97;6063008;23;97332;-76
2022/08/27 01:20:04;;;;;;;11.20;5.30;;;;;;;22.31;63.31;99674.19;6064607;23;97456;-76
2022/08/27 01:22:40;;;;;;;16.73;5.25;;;;;;;22.20;63.20;99667.19;6038623;23;97149;-76
2022/08/27 01:25:08;;;;;;;15.30;5.28;;;;;;;22.14;62.94;99665.88;6064241;23;97260;-76
2022/08/27 01:27:34;;;;;;;13.15;6.03;;;;;;;22.06;62.78;99656.88;6039301;23;97251;-76
2022/08/27 01:30:01;;;;;;;14.02;5.20;;;;;;;22.30;62.39;99680.53;6038604;23;97391;-76
2022/08/27 01:32:30;;;;;;;10.23;5.63;;;;;;;22.37;62.15;99677.16;6035808;23;97468;-76
2022/08/27 01:34:56;;;;;;;13.98;5.32;;;;;;;22.26;62.86;99663.09;6039933;23;97180;-76
2022/08/27 01:37:22;;;;;;;12.15;5.38;;;;;;;22.23;62.96;99666.88;6039789;23;97478;-76
2022/08/27 01:39:48;;;;;;;12.18;5.18;;;;;;;22.25;63.16;99672.94;6065605;23;97312;-77
2022/08/27 01:42:32;;;;;;;14.25;5.25;;;;;;;22.12;63.43;99667.00;6036539;23;97066;-76
2022/08/27 01:45:02;;;;;;;12.82;5.35;;;;;;;21.99;63.94;99666.44;6037826;23;96955;-76
2022/08/27 01:47:28;;;;;;;10.52;4.85;;;;;;;22.05;63.79;99665.88;6038471;23;99005;-76
2022/08/27 01:49:55;;;;;;;13.50;5.03;;;;;;;22.10;63.60;99667.13;6063364;23;97215;-76
2022/08/27 01:52:22;;;;;;;11.85;5.45;;;;;;;22.09;63.79;99670.81;6038785;23;97194;-76
2022/08/27 01:54:49;;;;;;;13.68;5.15;;;;;;;22.12;63.40;99675.03;6039582;23;97021;-77
2022/08/27 01:57:15;;;;;;;12.00;4.68;;;;;;;22.13;63.65;99674.88;6039193;23;97361;-75
2022/08/27 01:59:40;;;;;;;9.80;5.32;;;;;;;22.18;63.70;99668.31;6063310;23;97600;-77
2022/08/27 02:02:07;;;;;;;23.02;6.25;;;;;;;21.95;64.02;99663.22;6039892;23;97108;-77
2022/08/27 02:04:32;;;;;;;13.68;5.47;;;;;;;21.97;64.04;99660.41;6062982;23;97247;-75
2022/08/27 02:06:59;;;;;;;15.70;5.43;;;;;;;21.85;63.89;99663.22;6015548;23;101513;-76
2022/08/27 02:09:25;;;;;;;10.77;5.43;;;;;;;21.83;64.00;99667.84;6062762;23;97437;-76
2022/08/27 02:11:51;;;;;;;13.90;5.90;;;;;;;21.76;63.88;99657.84;6039295;23;97326;-77
2022/08/27 02:14:16;;;;;;;12.63;4.93;;;;;;;21.72;63.80;99646.63;6063455;23;97052;-74
2022/08/27 02:16:42;;;;;;;9.73;5.30;;;;;;;21.83;63.26;99641.13;6063509;23;97853;-77
2022/08/27 02:19:07;;;;;;;13.85;5.38;;;;;;;21.85;63.42;99667.72;6039378;23;101600;-76
2022/08/27 02:21:33;;;;;;;12.05;5.50;;;;;;;21.75;64.16;99669.53;6039027;23;97001;-75
2022/08/27 02:23:59;;;;;;;14.88;5.90;;;;;;;21.62;64.31;99667.97;6063863;23;97150;-76
2022/08/27 02:26:26;;;;;;;18.60;5.65;;;;;;;21.63;64.33;99656.31;6038936;23;99210;-76
2022/08/27 02:28:52;;;;;;;14.13;5.50;;;;;;;21.66;64.00;99655.19;6064739;23;97293;-77
2022/08/27 02:31:18;;;;;;;16.27;5.57;;;;;;;21.67;64.08;99659.53;6039441;23;97171;-74
2022/08/27 02:33:43;;;;;;;14.38;5.90;;;;;;;21.69;64.00;99665.59;6062518;23;96873;-77
2022/08/27 02:36:09;;;;;;;10.23;4.97;;;;;;;21.74;63.85;99655.34;6038758;23;100709;-75
2022/08/27 02:38:35;;;;;;;9.70;5.28;;;;;;;21.51;64.11;99651.25;6038725;23;97500;-77
2022/08/27 02:41:00;;;;;;;9.43;4.68;;;;;;;21.57;64.15;99667.56;6063322;23;97063;-76
2022/08/27 02:43:26;;;;;;;9.38;5.03;;;;;;;21.70;63.80;99668.13;6038519;23;96983;-75
2022/08/27 02:45:52;;;;;;;16.58;5.07;;;;;;;21.60;64.16;99682.44;6038698;23;98053;-77
2022/08/27 02:48:19;;;;;;;10.85;5.45;;;;;;;21.57;64.69;99691.59;6038854;23;97259;-74
2022/08/27 02:50:45;;;;;;;12.60;5.80;;;;;;;21.62;64.33;99688.50;6064192;23;97226;-77
2022/08/27 02:53:11;;;;;;;12.13;5.78;;;;;;;21.44;64.82;99673.16;6060356;23;97335;-76
2022/08/27 02:55:36;;;;;;;13.27;4.93;;;;;;;21.50;65.04;99695.78;6036409;23;100919;-76
2022/08/27 02:58:02;;;;;;;9.13;4.88;;;;;;;21.52;64.61;99688.47;6039322;23;97507;-77
2022/08/27 03:00:28;;;;;;;10.43;5.78;;;;;;;21.51;64.63;99685.97;6038715;23;97004;-76
2022/08/27 03:02:54;;;;;;;10.23;5.93;;;;;;;21.46;64.76;99697.88;6064268;23;97248;-76
2022/08/27 03:05:20;;;;;;;12.68;5.30;;;;;;;21.46;64.63;99694.38;6036069;23;101543;-75
2022/08/27 03:07:46;;;;;;;13.82;5.82;;;;;;;21.42;64.93;99700.97;6062020;23;97790;-76
2022/08/27 03:10:13;;;;;;;10.93;5.85;;;;;;;21.31;65.11;99682.34;6064186;23;97213;-77
2022/08/27 03:12:39;;;;;;;11.30;5.15;;;;;;;21.32;65.30;99687.56;6057155;23;97238;-75
2022/08/27 03:15:08;;;;;;;14.60;5.32;;;;;;;21.41;65.01;99708.13;6035506;23;101240;-77
2022/08/27 03:20:18;;;;;;;14.23;6.32;;;;;;;21.38;65.06;99724.44;6069068;23;96563;-75
2022/08/27 03:22:44;;;;;;;10.90;5.72;;;;;;;21.37;65.06;99728.06;6061506;23;97278;-76
2022/08/27 03:25:10;;;;;;;9.68;5.40;;;;;;;21.39;65.15;99728.78;6038264;23;97878;-76
2022/08/27 03:27:36;;;;;;;11.27;5.45;;;;;;;21.32;65.28;99730.28;6038921;23;97291;-76
2022/08/27 03:30:08;;;;;;;17.60;6.18;;;;;;;21.22;65.41;99705.38;6064638;23;96650;-76
2022/08/27 03:32:34;;;;;;;21.25;6.72;;;;;;;21.36;65.20;99734.38;6014218;23;97229;-76
2022/08/27 03:34:59;;;;;;;10.52;5.90;;;;;;;21.40;65.20;99741.13;6039749;23;97355;-76
2022/08/27 03:37:25;;;;;;;12.27;5.43;;;;;;;21.18;65.77;99723.47;6061668;23;97332;-76
2022/08/27 03:39:51;;;;;;;11.70;5.55;;;;;;;21.18;65.84;99723.47;6063850;23;96912;-76
2022/08/27 03:42:16;;;;;;;14.40;5.72;;;;;;;21.30;65.68;99748.25;6064695;23;96821;-76
2022/08/27 03:44:42;;;;;;;10.77;5.38;;;;;;;21.26;65.83;99765.50;6062122;23;97971;-76
2022/08/27 03:47:07;;;;;;;14.80;6.28;;;;;;;21.21;66.01;99776.59;6039754;23;97237;-76
2022/08/27 03:49:33;;;;;;;15.15;6.20;;;;;;;21.32;65.90;99758.78;6062511;23;96990;-77
2022/08/27 03:51:58;;;;;;;11.57;5.72;;;;;;;21.20;66.67;99742.00;6063653;23;97037;-77
2022/08/27 03:54:24;;;;;;;15.63;6.85;;;;;;;21.24;66.79;99749.63;6061708;23;97379;-75
2022/08/27 03:56:50;;;;;;;14.93;7.07;;;;;;;21.44;66.66;99773.78;6063649;23;97795;-77
2022/08/27 03:59:16;;;;;;;14.48;7.22;;;;;;;21.27;67.30;99731.66;6089423;23;97040;-76
2022/08/27 04:01:42;;;;;;;12.93;8.25;;;;;;;21.35;67.81;99747.81;6038854;23;97475;-76
2022/08/27 04:04:08;;;;;;;15.90;8.48;;;;;;;21.38;67.78;99742.25;6062434;23;97361;-77
2022/08/27 04:06:34;;;;;;;11.63;7.97;;;;;;;21.43;67.90;99735.53;6038900;23;100976;-77
2022/08/27 04:09:00;;;;;;;22.02;7.72;;;;;;;21.36;68.42;99739.72;6015028;23;97321;-76
2022/08/27 04:11:26;;;;;;;11.18;7.63;;;;;;;21.34;68.86;99743.47;6014921;23;97042;-76
2022/08/27 04:13:51;;;;;;;23.77;8.50;;;;;;;21.44;68.61;99739.91;6037611;23;101103;-76
2022/08/27 04:16:17;;;;;;;14.40;8.43;;;;;;;21.34;69.31;99728.31;6063558;23;97982;-77
2022/08/27 04:18:42;;;;;;;16.13;8.80;;;;;;;21.34;68.93;99714.13;6062713;23;97309;-77
2022/08/27 04:21:10;;;;;;;17.75;8.80;;;;;;;21.34;69.44;99732.81;6016023;23;96865;-77
2022/08/27 04:23:37;;;;;;;13.90;9.27;;;;;;;21.40;69.48;99732.28;6038997;23;97405;-77
2022/08/27 04:26:06;;;;;;;14.07;8.77;;;;;;;21.37;69.75;99724.56;6040039;23;97351;-76
2022/08/27 04:28:32;;;;;;;16.92;9.05;;;;;;;21.37;69.85;99719.22;6063604;23;97157;-78
2022/08/27 04:30:58;;;;;;;19.20;9.02;;;;;;;21.30;70.09;99720.72;6041116;23;96863;-75
2022/08/27 04:33:23;;;;;;;16.67;8.45;;;;;;;21.31;70.09;99715.22;6062917;23;97914;-75
2022/08/27 04:36:07;;;;;;;15.10;8.25;;;;;;;21.31;70.23;99711.72;6064407;23;97816;-76
2022/08/27 04:38:33;;;;;;;12.05;8.30;;;;;;;21.17;70.57;99692.41;6063182;23;97186;-76
2022/08/27 04:41:21;;;;;;;12.20;8.98;;;;;;;21.42;69.76;99704.47;6033596;23;97261;-77
2022/08/27 04:44:08;;;;;;;11.45;7.47;;;;;;;21.58;69.29;99711.09;6062420;23;98097;-77
2022/08/27 04:46:39;;;;;;;13.80;8.85;;;;;;;21.64;69.40;99707.88;6064408;23;101153;-76
2022/08/27 04:49:08;;;;;;;16.88;7.32;;;;;;;21.70;69.37;99700.19;6065241;23;96778;-77
2022/08/27 04:51:34;;;;;;;19.48;8.45;;;;;;;21.88;69.08;99710.19;6038633;23;97257;-76
2022/08/27 04:54:01;;;;;;;14.52;7.93;;;;;;;22.07;68.36;99712.00;6038696;23;100849;-76
2022/08/27 04:56:27;;;;;;;12.15;7.53;;;;;;;22.17;67.96;99701.34;6040195;23;100549;-76
2022/08/27 04:58:53;;;;;;;13.63;7.60;;;;;;;22.37;67.35;99706.56;6040448;23;96858;-75
2022/08/27 05:01:24;;;;;;;11.43;7.90;;;;;;;22.53;67.02;99703.28;6041424;23;97101;-76
2022/08/27 05:03:50;;;;;;;16.35;7.45;;;;;;;22.67;66.56;99704.66;6063793;23;98340;-77
2022/08/27 05:06:16;;;;;;;12.90;8.18;;;;;;;22.86;66.07;99708.25;6037596;23;97898;-76
2022/08/27 05:08:42;;;;;;;17.90;9.07;;;;;;;23.02;65.48;99701.34;6060172;23;97189;-76
2022/08/27 05:11:11;;;;;;;21.35;8.18;;;;;;;23.07;65.41;99708.94;6064789;23;97289;-76
2022/08/27 05:13:37;;;;;;;18.65;9.00;;;;;;;23.22;64.80;99693.22;6059270;23;97399;-76
2022/08/27 05:16:05;;;;;;;23.65;9.43;;;;;;;23.41;64.48;99708.34;6035472;23;100930;-76
2022/08/27 05:18:32;;;;;;;18.80;8.52;;;;;;;23.52;64.33;99712.66;6038807;23;96997;-76
2022/08/27 05:20:57;;;;;;;16.60;9.07;;;;;;;23.69;64.23;99720.72;6041477;23;97216;-76
2022/08/27 05:23:24;;;;;;;15.25;8.48;;;;;;;23.52;63.68;99694.75;6063680;23;97365;-76
2022/08/27 05:25:51;;;;;;;16.48;8.65;;;;;;;23.84;63.25;99731.78;6060418;23;97810;-76
2022/08/27 05:28:20;;;;;;;15.00;8.88;;;;;;;23.97;63.02;99720.72;6038447;23;97195;-76
2022/08/27 05:30:48;;;;;;;19.08;7.70;;;;;;;24.16;62.54;99730.41;6041030;23;97140;-76
2022/08/27 05:33:16;;;;;;;22.30;8.60;;;;;;;24.32;62.34;99732.41;6039202;23;97575;-75
2022/08/27 05:35:44;;;;;;;13.90;6.95;;;;;;;24.33;61.89;99707.28;6064094;23;97801;-77
2022/08/27 05:38:09;;;;;;;12.98;6.65;;;;;;;24.45;61.56;99708.72;6090894;23;96595;-78
2022/08/27 05:40:35;;;;;;;13.30;7.13;;;;;;;24.66;60.68;99720.94;6035447;23;96993;-76
2022/08/27 05:43:01;;;;;;;11.25;6.00;;;;;;;24.86;60.02;99727.78;6034623;23;97616;-76
2022/08/27 05:45:26;;;;;;;14.00;6.50;;;;;;;24.98;59.70;99731.88;6038664;23;100928;-74
2022/08/27 05:47:52;;;;;;;9.52;5.63;;;;;;;25.07;59.74;99730.94;6015897;23;96701;-75
2022/08/27 05:50:17;;;;;;;13.48;5.63;;;;;;;25.19;59.22;99733.34;6041349;23;96889;-77
2022/08/27 05:52:43;;;;;;;10.48;6.55;;;;;;;25.35;59.20;99729.94;6084098;23;97449;-76
2022/08/27 05:55:08;;;;;;;10.65;5.65;;;;;;;25.37;58.94;99722.56;6063524;23;97969;-76
2022/08/27 05:57:33;;;;;;;16.50;5.97;;;;;;;25.63;58.21;99730.53;6063366;23;96614;-75
2022/08/27 06:02:44;;;;;;;9.57;5.22;;;;;;;26.00;57.48;99730.13;6088192;23;97606;-76
2022/08/27 06:05:10;;;;;;;11.40;5.15;;;;;;;26.27;56.53;99739.75;6062880;23;97307;-78
2022/08/27 06:07:35;;;;;;;14.73;5.90;;;;;;;26.45;55.40;99719.91;6038078;23;97338;-78
2022/08/27 06:10:03;;;;;;;14.90;5.72;;;;;;;26.65;54.86;99718.56;6040186;23;97001;-75
2022/08/27 06:12:29;;;;;;;13.20;4.72;;;;;;;26.98;54.44;99724.72;6037855;23;101264;-75
2022/08/27 06:14:54;;;;;;;12.60;5.70;;;;;;;27.33;53.51;99727.16;6062142;23;97539;-76
2022/08/27 06:17:20;;;;;;;17.27;5.30;;;;;;;27.47;53.08;99737.22;6037941;23;97183;-76
2022/08/27 06:19:46;;;;;;;10.88;5.38;;;;;;;27.51;52.78;99720.50;6088421;23;97339;-77
2022/08/27 06:22:11;;;;;;;7.93;4.68;;;;;;;27.96;52.08;99739.66;6013631;23;101830;-78
2022/08/27 06:24:39;;;;;;;12.88;5.47;;;;;;;28.19;51.94;99737.81;6061130;23;97229;-77
2022/08/27 06:27:04;;;;;;;10.45;4.97;;;;;;;28.46;51.04;99732.06;6038554;23;97130;-75
2022/08/27 06:29:30;;;;;;;12.43;6.00;;;;;;;28.53;50.52;99741.09;6037684;23;96782;-76
2022/08/27 06:31:55;;;;;;;15.30;6.50;;;;;;;28.64;49.79;99737.97;6038163;23;100757;-76
2022/08/27 06:34:21;;;;;;;9.18;5.30;;;;;;;29.01;49.24;99755.16;6060720;23;97233;-77
2022/08/27 06:36:46;;;;;;;10.88;4.82;;;;;;;29.28;48.17;99751.00;6037909;23;97240;-77
2022/08/27 06:39:14;;;;;;;7.90;4.50;;;;;;;29.64;47.80;99732.16;6088498;23;97132;-78
2022/08/27 06:41:41;;;;;;;7.35;4.75;;;;;;;30.20;46.82;99745.84;6036962;23;99304;-77
2022/08/27 06:44:10;;;;;;;10.43;4.90;;;;;;;30.78;45.83;99739.50;6061052;23;97773;-75
2022/08/27 06:46:37;;;;;;;15.23;4.95;;;;;;;31.29;45.06;99722.94;6037087;23;97036;-76
2022/08/27 06:49:02;;;;;;;6.28;4.45;;;;;;;32.10;43.37;99724.94;6062412;23;97319;-77
2022/08/27 06:51:33;;;;;;;13.20;5.75;;;;;;;33.02;40.74;99712.41;6013759;23;100953;-75
2022/08/27 06:54:01;;;;;;;12.02;5.57;;;;;;;33.69;40.17;99713.84;6035273;23;101261;-77
2022/08/27 06:56:28;;;;;;;11.82;4.72;;;;;;;34.76;38.43;99716.63;6087262;23;96643;-75
2022/08/27 06:58:54;;;;;;;11.25;5.20;;;;;;;35.07;37.26;99715.69;6013219;23;96707;-76
2022/08/27 07:01:23;;;;;;;7.47;4.65;;;;;;;35.91;35.73;99705.00;6037537;23;101079;-77
2022/08/27 07:03:49;;;;;;;11.80;5.38;;;;;;;36.19;35.21;99709.84;6086569;23;97250;-77
2022/08/27 07:06:16;;;;;;;7.70;3.92;;;;;;;36.67;35.13;99706.09;6037002;23;97364;-78
2022/08/27 07:08:41;;;;;;;8.93;4.22;;;;;;;36.96;33.60;99698.00;6013109;23;97221;-76
2022/08/27 07:11:12;;;;;;;8.15;3.95;;;;;;;37.51;32.96;99702.19;6062872;23;101116;-76
2022/08/27 07:13:38;;;;;;;10.32;4.22;;;;;;;37.96;32.54;99710.47;6031424;23;101131;-77
2022/08/27 07:16:09;;;;;;;13.57;3.78;;;;;;;38.20;32.17;99705.69;6057835;23;97225;-77
2022/08/27 07:18:35;;;;;;;7.82;3.70;;;;;;;38.39;32.06;99706.25;6036203;23;96736;-77
2022/08/27 07:21:02;;;;;;;7.80;4.20;;;;;;;38.70;31.48;99709.50;6059892;23;98087;-76
2022/08/27 07:23:29;;;;;;;9.90;4.15;;;;;;;39.12;30.63;99704.34;6037051;23;101036;-75
2022/08/27 07:25:54;;;;;;;10.00;4.32;;;;;;;39.19;30.47;99706.09;6036049;23;97084;-76
2022/08/27 07:28:20;;;;;;;8.60;4.03;;;;;;;39.59;30.27;99709.34;6012866;23;97212;-76
2022/08/27 07:30:46;;;;;;;9.40;3.88;;;;;;;39.58;30.11;99717.81;6035144;23;100167;-76
2022/08/27 07:33:11;;;;;;;7.15;3.83;;;;;;;39.66;29.29;99714.63;6059036;23;97291;-79
2022/08/27 07:35:37;;;;;;;7.85;4.15;;;;;;;39.26;29.87;99715.75;6007600;23;97123;-78
2022/08/27 07:38:02;;;;;;;7.35;3.90;;;;;;;38.93;30.47;99712.06;6057865;23;96779;-79
2022/08/27 07:40:28;;;;;;;11.65;4.40;;;;;;;36.67;33.49;99727.13;6059658;23;97943;-79
2022/08/27 07:45:47;;;;;;;7.13;3.60;;;;;;;33.97;37.47;99716.16;6059189;23;97156;-76
2022/08/27 07:48:14;;;;;;;7.75;4.40;;;;;;;32.86;40.12;99721.81;6059539;23;97342;-76
2022/08/27 07:50:40;;;;;;;13.63;4.18;;;;;;;34.48;37.53;99711.63;6058915;23;97502;-76
2022/08/27 07:53:06;;;;;;;8.23;3.88;;;;;;;37.34;32.76;99708.41;6010166;23;100656;-76
2022/08/27 07:55:35;;;;;;;11.23;4.57;;;;;;;39.24;30.98;99709.69;6058591;23;97224;-76
2022/08/27 07:58:00;;;;;;;11.90;4.10;;;;;;;40.10;28.85;99706.28;6036791;23;97380;-76
2022/08/27 08:00:27;;;;;;;6.80;4.00;;;;;;;39.87;29.50;99709.38;6036102;23;100724;-76
2022/08/27 08:02:53;;;;;;;6.28;3.70;;;;;;;40.20;29.16;99706.38;6036431;23;97349;-76
2022/08/27 08:05:19;;;;;;;5.50;3.47;;;;;;;39.55;29.46;99701.88;6036557;23;96677;-76
2022/08/27 08:07:44;;;;;;;9.77;3.83;;;;;;;37.49;32.40;99718.03;6011418;23;96916;-76
2022/08/27 08:10:10;;;;;;;6.65;4.07;;;;;;;37.74;32.63;99714.97;6035362;23;101568;-76
2022/08/27 08:12:37;;;;;;;9.15;4.45;;;;;;;36.97;32.96;99717.97;6035507;23;102099;-76
2022/08/27 08:15:05;;;;;;;10.23;4.30;;;;;;;35.24;35.93;99720.56;6060764;23;97163;-76
2022/08/27 08:17:34;;;;;;;8.02;3.53;;;;;;;37.21;33.27;99727.00;6036046;23;97198;-76
2022/08/27 08:20:01;;;;;;;8.35;4.22;;;;;;;36.55;33.61;99716.22;6011356;23;100554;-76
2022/08/27 08:22:26;;;;;;;6.47;4.13;;;;;;;35.67;35.37;99741.47;6058954;23;97811;-76
2022/08/27 08:24:52;;;;;;;9.45;4.18;;;;;;;34.98;36.22;99727.13;6034260;23;97400;-76
2022/08/27 08:27:19;;;;;;;6.28;3.75;;;;;;;33.55;37.96;99748.44;6037287;23;97152;-78
2022/08/27 08:29:46;;;;;;;4.88;3.97;;;;;;;32.82;39.52;99745.84;6035800;23;100819;-78
2022/08/27 08:32:11;;;;;;;9.52;4.03;;;;;;;33.16;39.18;99757.50;6037024;23;97541;-78
2022/08/27 08:34:37;;;;;;;6.72;3.60;;;;;;;34.06;38.28;99752.16;6058816;23;96953;-78
2022/08/27 08:37:04;;;;;;;8.52;4.15;;;;;;;33.72;39.09;99756.09;6059454;23;97090;-77
2022/08/27 08:39:29;;;;;;;10.48;3.85;;;;;;;33.43;39.21;99757.44;6013768;23;101094;-75
2022/08/27 08:41:58;;;;;;;13.07;4.30;;;;;;;32.58;40.20;99744.63;6030362;23;97113;-77
2022/08/27 08:44:29;;;;;;;9.50;3.72;;;;;;;32.25;41.74;99758.13;6054875;23;97304;-79
2022/08/27 08:47:44;;;;;;;14.60;4.20;;;;;;;31.61;42.06;99761.28;6061850;23;97132;-79
2022/08/27 08:50:18;;;;;;;7.78;3.42;;;;;;;31.49;43.18;99763.72;6023821;23;102501;-77
2022/08/27 08:52:53;;;;;;;10.07;4.30;;;;;;;31.76;42.75;99770.91;6055963;23;97495;-79
2022/08/27 08:55:32;;;;;;;8.02;4.03;;;;;;;32.09;42.15;99766.69;6056128;23;97201;-78
2022/08/27 08:58:31;;;;;;;8.50;3.97;;;;;;;33.93;39.64;99760.38;6058186;23;97130;-78
2022/08/27 09:01:00;;;;;;;7.72;5.10;;;;;;;34.21;38.75;99749.13;6058416;23;101398;-80
2022/08/27 09:03:27;;;;;;;9.57;4.55;;;;;;;32.75;40.57;99763.19;6034685;23;97361;-79
2022/08/27 09:05:58;;;;;;;8.60;3.58;;;;;;;31.90;42.13;99769.13;6034075;23;97226;-78
2022/08/27 09:08:44;;;;;;;11.70;6.30;;;;;;;31.67;43.06;99769.44;6056887;23;97031;-78
2022/08/27 09:11:27;;;;;;;6.95;4.13;;;;;;;31.63;42.90;99761.94;6034006;23;101400;-80
2022/08/27 09:14:25;;;;;;;9.93;6.63;;;;;;;31.22;43.94;99784.44;6030397;23;101518;-78
2022/08/27 09:16:51;;;;;;;10.75;5.63;;;;;;;30.84;45.08;99780.22;6039768;23;97642;-80
2022/08/27 09:19:17;;;;;;;11.82;5.60;;;;;;;30.77;45.39;99770.31;6035357;23;97453;-80
2022/08/27 09:21:43;;;;;;;8.32;4.22;;;;;;;31.44;44.25;99777.88;6033375;23;97997;-81
2022/08/27 09:24:23;;;;;;;7.10;4.38;;;;;;;31.09;45.16;99779.75;6059367;23;97281;-77
2022/08/27 09:26:48;;;;;;;7.35;3.72;;;;;;;31.39;44.25;99774.97;6034599;23;97279;-76
2022/08/27 09:29:16;;;;;;;4.95;3.40;;;;;;;31.22;44.25;99784.44;6060505;23;97043;-76
2022/08/27 09:31:45;;;;;;;8.35;3.90;;;;;;;31.77;43.45;99790.78;6056323;23;97552;-79
2022/08/27 09:34:12;;;;;;;10.80;3.75;;;;;;;31.22;43.89;99773.59;6033420;23;101562;-77
2022/08/27 09:37:02;;;;;;;7.15;3.40;;;;;;;32.00;42.11;99785.03;6055512;23;97377;-77
2022/08/27 09:39:28;;;;;;;;;;;;;;;32.09;41.75;99783.81;6060109;23;97163;-78
2022/08/27 09:41:54;;;;;;;11.07;3.35;;;;;;;32.59;41.27;99767.19;6036027;23;97889;-77
2022/08/27 09:44:21;;;;;;;7.70;3.92;;;;;;;33.15;39.90;99758.56;6086764;23;97537;-77
2022/08/27 09:46:58;;;;;;;7.75;3.88;;;;;;;34.89;37.50;99759.28;6059653;23;97269;-77
2022/08/27 09:49:25;;;;;;;10.55;3.90;;;;;;;35.67;36.70;99755.94;6039093;23;97049;-79
2022/08/27 09:51:51;;;;;;;8.15;3.85;;;;;;;36.27;36.42;99755.09;6062358;23;101406;-79
2022/08/27 09:54:29;;;;;;;10.80;3.67;;;;;;;36.27;36.38;99750.47;6013959;23;101400;-78
2022/08/27 09:56:56;;;;;;;8.35;4.72;;;;;;;35.85;36.27;99746.03;6061661;23;97365;-79
2022/08/27 09:59:33;;;;;;;8.82;4.05;;;;;;;34.86;38.00;99749.66;6038867;23;97224;-77
2022/08/27 10:02:07;;;;;;;9.30;3.97;;;;;;;33.78;39.89;99761.50;6036176;23;98927;-79
2022/08/27 10:04:41;;;;;;;9.50;4.38;;;;;;;33.17;40.91;99759.19;6062333;23;97921;-79
2022/08/27 10:07:17;;;;;;;10.85;3.55;;;;;;;32.84;40.34;99754.63;6039020;23;96630;-79
2022/08/27 10:09:48;;;;;;;10.95;4.05;;;;;;;33.39;39.96;99748.88;6062500;23;96928;-79
2022/08/27 10:12:36;;;;;;;5.90;3.38;;;;;;;32.97;40.94;99755.66;6036923;23;97503;-76
2022/08/27 10:15:05;;;;;;;7.85;3.67;;;;;;;32.97;40.53;99753.78;6035894;23;98252;-79
2022/08/27 10:17:50;;;;;;;7.07;3.35;;;;;;;32.34;42.33;99747.91;6037471;23;97166;-79
2022/08/27 10:20:33;;;;;;;7.55;3.63;;;;;;;32.13;43.01;99757.09;6038879;23;96950;-79
2022/08/27 10:23:02;;;;;;;4.13;2.50;;;;;;;32.19;40.55;99764.41;6056052;23;97924;-78
2022/08/27 10:26:02;;;;;;;9.67;3.20;;;;;;;31.65;41.23;99768.81;6035418;23;101337;-83
2022/08/27 10:28:46;;;;;;;9.82;4.32;;;;;;;31.41;41.95;99772.03;6010299;23;97171;-84
2022/08/27 10:31:38;;;;;;;5.18;3.95;;;;;;;31.30;43.07;99767.97;6060698;23;97140;-83
2022/08/27 10:34:39;;;;;;;6.55;3.72;;;;;;;31.26;43.03;99772.13;6036192;23;98540;-85
2022/08/27 10:37:27;;;;;;;5.63;2.88;;;;;;;31.09;41.27;99779.75;6010073;23;97488;-85
2022/08/27 10:40:11;;;;;;;10.75;3.03;;;;;;;30.82;41.02;99776.03;6032551;23;97413;-83
2022/08/27 10:42:49;;;;;;;7.78;3.40;;;;;;;30.76;41.67;99760.53;6052374;23;97359;-79
2022/08/27 10:45:28;;;;;;;5.97;2.88;;;;;;;30.81;42.78;99769.75;6083400;23;98212;-83
2022/08/27 10:47:53;;;;;;;6.78;3.53;;;;;;;30.81;42.78;99767.06;6058942;23;97265;-83
2022/08/27 10:50:38;;;;;;;11.57;4.45;;;;;;;30.52;43.08;99773.47;6036567;23;96668;-84
2022/08/27 10:53:27;;;;;;;7.90;3.50;;;;;;;30.34;43.60;99764.94;6080857;23;97136;-84
2022/08/27 10:56:03;;;;;;;6.50;3.22;;;;;;;30.34;44.66;99764.94;6062013;23;97404;-82
2022/08/27 10:58:32;;;;;;;6.20;3.00;;;;;;;30.29;44.38;99772.81;6036570;23;100749;-82
2022/08/27 11:01:01;;;;;;;8.60;3.15;;;;;;;30.40;44.36;99767.72;6058072;23;97240;-83
2022/08/27 11:04:00;;;;;;;6.93;3.65;;;;;;;30.13;45.05;99771.16;6034520;23;97150;-83
2022/08/27 11:06:33;;;;;;;9.27;4.07;;;;;;;29.64;46.44;99764.59;6009125;23;97984;-82
2022/08/27 11:09:16;;;;;;;9.98;3.70;;;;;;;29.82;46.54;99768.72;6035611;23;100983;-79
2022/08/27 11:11:45;;;;;;;10.70;4.13;;;;;;;30.01;45.78;99763.53;6035809;23;97126;-80
2022/08/27 11:14:54;;;;;;;7.78;3.70;;;;;;;30.25;45.62;99769.66;6061827;23;96779;-82
2022/08/27 11:17:25;;;;;;;9.23;3.70;;;;;;;30.30;44.91;99764.50;6024730;23;97951;-82
2022/08/27 11:20:05;;;;;;;7.78;3.45;;;;;;;30.04;44.84;99735.28;6061765;23;97798;-79
2022/08/27 11:23:03;;;;;;;5.50;3.00;;;;;;;29.86;45.70;99762.75;6038398;23;97098;-82
2022/08/27 11:25:50;;;;;;;6.55;3.35;;;;;;;29.82;44.23;99747.09;6039074;23;96722;-82
2022/08/27 11:28:18;;;;;;;5.03;3.00;;;;;;;29.44;44.71;99728.31;6014024;23;101240;-82
2022/08/27 11:30:46;;;;;;;7.78;3.00;;;;;;;29.49;45.40;99752.91;6039642;23;97456;-78
2022/08/27 11:33:32;;;;;;;4.93;3.08;;;;;;;29.61;44.81;99742.47;6063687;23;97291;-82
2022/08/27 11:36:06;;;;;;;4.18;2.42;;;;;;;29.77;44.43;99742.28;6089491;23;97248;-82
2022/08/27 11:38:46;;;;;;;4.22;2.30;;;;;;;29.59;44.71;99714.78;6063595;23;101452;-83
2022/08/27 11:41:17;;;;;;;;;;;;;;;29.42;45.48;99731.22;6065410;23;100822;-83
2022/08/27 11:43:43;;;;;;;4.57;2.92;;;;;;;29.29;46.13;99733.72;6063800;23;97526;-81
2022/08/27 11:46:10;;;;;;;5.45;2.80;;;;;;;29.77;44.93;99724.19;6067306;23;96884;-83